Corinne, UT (84307)

7:59 AM MDT on October 25, 2014 (GMT -0600)
MesoWest Great Salt Lake Minerals UT US UUNET | Change Station
CLOSE
Current Station
Personal Weather Station
Location: Corinne, UT
Elevation: 4211 ft
Nearby Weather Stations

Elev 4211 ft 41.30 °N, 112.27 °W | Updated 29 minutes ago

Clear
Clear
51 °F
Feels Like 51 °F
N
4
Wind Variable Wind from NNW
Gusts 6.0 mph

Today
High -- | Low -- °F
--% Chance of Precip.
Yesterday
High -- | Low -- °F
Precip. -- in
7:52 AM 6:33 PM
Waxing Crescent, 3% visible
Pressure 30.07 in
Visibility 10.0 miles
Clouds Clear
Dew Point 38 °F
Humidity 60%
Rainfall -999.00 in
Snow Depth 1 in , 1 in
UV 0 out of 12
Pollen 2.00 out of 12
Ozone Good
PM2.5 Good
Flu Activity Sporadic
METAR KBMC 251335Z AUTO 16004KT 10SM CLR 08/01 A3007 RMK AO1 T00760005

More Conditions Fewer Conditions

Pressure 30.07 in
Visibility 10.0 miles
Clouds Clear
Dew Point 38 °F
Humidity 60%
Rainfall -999.00 in
Snow Depth 1 in , 1 in
UV 0 out of 12
Pollen 2.00 out of 12
Ozone Good
PM2.5 Good
Flu Activity Sporadic
METAR KBMC 251335Z AUTO 16004KT 10SM CLR 08/01 A3007 RMK AO1 T00760005

More Conditions Fewer Conditions

10-Day Weather Forecast

Almanac

Astronomy

Oct. 25, 2014 Rise Set
Actual Time 7:52 AM MDT 6:33 PM MDT
Civil Twilight 7:24 AM MDT 7:01 PM MDT
Nautical Twilight 6:51 AM MDT 7:33 PM MDT
Astronomical Twilight 6:19 AM MDT 8:05 PM MDT
Moon 9:36 AM MDT 7:58 PM MDT
Length of Visible Light 11h 37m
Length of Day
10h 40m
Tomorrow will be 2m 33s shorter.
Waxing Crescent, 3% of the Moon is Illuminated
Today
Waxing Crescent
Oct 30
First Quarter
Nov 6
Full
Nov 14
Last Quarter
Nov 22
New

Today's Extremes

State Highs State Lows

Community

WunderPhotos

Upload Photos

1,764,830 photos uploaded!

Nearby

Air Quality

  Air Quality AQ Index Pollutant
Yesterday Good
PM10
Yesterday Good
OZONE
Current Good
PM2.5
Current Good
OZONE
Saturday Good
OZONE
Sunday Good
OZONE

Snow Depth

Station Depth Elevation
Ben Lomond Peak 1 in 8000 ft
Ben Lomond Trail 1 in 6000 ft
Little Bear 0 in 6550 ft
Farmington 0 in 8000 ft
Monte Cristo 0 in 8960 ft

Earthquake Activity

City Distance Mag. Time & Date
No recent earthquake activity has been reported nearby.
Minimum magnitude displayed is 2.5.

Coastal Water Temperatures

Place Temperature
No Stations Reporting

Nearby Weather Stations